createdAt,value
2023-04-18T00:02:23.197Z,8.65
2023-04-18T00:04:57.937Z,8.73
2023-04-18T00:07:29.346Z,11.33
2023-04-18T00:09:58.353Z,9.73
2023-04-18T00:12:27.937Z,10.98
2023-04-18T00:14:54.517Z,8.73
2023-04-18T00:17:29.169Z,7.45
2023-04-18T00:19:56.359Z,7.00
2023-04-18T00:22:26.958Z,10.82
2023-04-18T00:24:53.361Z,10.02
2023-04-18T00:27:20.498Z,7.43
2023-04-18T00:29:49.754Z,7.88
2023-04-18T00:32:19.752Z,6.97
2023-04-18T00:34:46.308Z,8.57
2023-04-18T00:37:15.569Z,8.35
2023-04-18T00:39:41.874Z,6.18
2023-04-18T00:42:08.230Z,6.65
2023-04-18T00:44:39.238Z,5.97
2023-04-18T00:47:08.399Z,6.22
2023-04-18T00:49:34.797Z,5.40
2023-04-18T00:52:03.943Z,6.10
2023-04-18T00:54:30.514Z,7.88
2023-04-18T00:56:56.978Z,6.33
2023-04-18T00:59:28.238Z,6.10
2023-04-18T01:01:54.814Z,7.18
2023-04-18T01:04:21.527Z,6.05
2023-04-18T01:06:56.473Z,6.72
2023-04-18T01:09:24.595Z,6.63
2023-04-18T01:11:54.432Z,9.65
2023-04-18T01:14:24.044Z,8.95
2023-04-18T01:16:50.469Z,9.13
2023-04-18T01:19:19.666Z,6.28
2023-04-18T01:21:46.085Z,5.53
2023-04-18T01:24:41.357Z,6.70
2023-04-18T01:27:13.436Z,7.90
2023-04-18T01:29:46.515Z,6.13
2023-04-18T01:32:12.914Z,5.93
2023-04-18T01:34:39.268Z,7.90
2023-04-18T01:39:47.710Z,4.78
2023-04-18T01:42:16.744Z,6.63
2023-04-18T01:44:43.313Z,5.75
2023-04-18T01:47:12.754Z,7.17
2023-04-18T01:49:46.671Z,8.07
2023-04-18T01:52:18.888Z,7.15
2023-04-18T01:54:45.277Z,6.72
2023-04-18T01:57:11.630Z,5.15
2023-04-18T01:59:40.346Z,7.30
2023-04-18T02:02:11.177Z,6.80
2023-04-18T02:04:39.801Z,5.28
2023-04-18T02:07:07.801Z,5.88
2023-04-18T02:09:34.162Z,5.93
2023-04-18T02:12:09.934Z,5.03
2023-04-18T02:14:36.502Z,5.82
2023-04-18T02:17:02.966Z,6.03
2023-04-18T02:19:32.692Z,8.27
2023-04-18T02:22:01.067Z,6.60
2023-04-18T02:24:27.489Z,6.13
2023-04-18T02:27:07.106Z,5.32
2023-04-18T02:29:37.436Z,5.15
2023-04-18T02:32:07.160Z,5.30
2023-04-18T02:34:33.742Z,7.25
2023-04-18T02:37:04.452Z,6.90
2023-04-18T02:39:31.324Z,6.13
2023-04-18T02:41:58.630Z,5.95
2023-04-18T02:44:28.096Z,7.07
2023-04-18T02:46:54.677Z,10.25
2023-04-18T02:49:21.113Z,4.07
2023-04-18T02:51:58.756Z,6.60
2023-04-18T02:54:25.257Z,8.25
2023-04-18T02:57:04.352Z,7.00
2023-04-18T02:59:37.940Z,4.35
2023-04-18T03:02:09.082Z,6.27
2023-04-18T03:04:35.638Z,6.03
2023-04-18T03:07:02.494Z,7.57
2023-04-18T03:09:32.345Z,4.70
2023-04-18T03:11:58.677Z,9.82
2023-04-18T03:14:31.122Z,6.07
2023-04-18T03:16:57.580Z,6.93
2023-04-18T03:19:26.433Z,7.45
2023-04-18T03:21:55.654Z,5.75
2023-04-18T03:24:22.004Z,7.75
2023-04-18T03:26:50.727Z,5.80
2023-04-18T03:29:20.356Z,6.45
2023-04-18T03:31:47.005Z,7.75
2023-04-18T03:34:13.938Z,9.27
2023-04-18T03:36:45.886Z,7.13
2023-04-18T03:41:56.997Z,6.35
2023-04-18T03:44:23.481Z,5.55
2023-04-18T03:46:50.250Z,7.97
2023-04-18T03:49:16.624Z,6.20
2023-04-18T03:51:53.019Z,7.33
2023-04-18T03:54:19.394Z,6.40
2023-04-18T03:56:54.813Z,7.97
2023-04-18T03:59:21.156Z,6.22
2023-04-18T04:02:00.950Z,6.88
2023-04-18T04:04:28.727Z,5.80
2023-04-18T04:06:55.821Z,5.88
2023-04-18T04:09:22.277Z,8.98
2023-04-18T04:11:48.659Z,5.90
2023-04-18T04:14:19.974Z,7.05
2023-04-18T04:16:46.486Z,7.40
2023-04-18T04:19:12.945Z,10.10
2023-04-18T04:21:44.344Z,7.70
2023-04-18T04:24:10.741Z,8.65
2023-04-18T04:26:37.222Z,10.65
2023-04-18T04:29:14.107Z,8.73
2023-04-18T04:31:40.569Z,6.70
2023-04-18T04:34:09.133Z,8.75
2023-04-18T04:36:39.730Z,7.55
2023-04-18T04:39:08.619Z,6.93
2023-04-18T04:41:40.919Z,9.47
2023-04-18T04:44:07.325Z,8.27
2023-04-18T04:46:46.555Z,8.27
2023-04-18T04:49:17.084Z,8.18
2023-04-18T04:51:46.319Z,7.93
2023-04-18T04:54:13.007Z,9.07
2023-04-18T04:56:43.778Z,7.90
2023-04-18T04:59:13.067Z,6.68
2023-04-18T05:01:42.095Z,7.22
2023-04-18T05:04:08.966Z,9.63
2023-04-18T05:06:35.553Z,11.90
2023-04-18T05:09:01.957Z,10.15
2023-04-18T05:11:32.818Z,7.95
2023-04-18T05:13:59.648Z,6.65
2023-04-18T05:16:26.486Z,9.10
2023-04-18T05:19:02.317Z,7.07
2023-04-18T05:21:29.628Z,6.85
2023-04-18T05:24:00.199Z,11.13
2023-04-18T05:26:26.896Z,7.10
2023-04-18T05:28:53.337Z,6.78
2023-04-18T05:34:03.386Z,6.93
2023-04-18T05:36:32.648Z,7.97
2023-04-18T05:38:58.992Z,8.45
2023-04-18T05:41:29.996Z,9.00
2023-04-18T05:44:04.692Z,9.57
2023-04-18T05:46:43.066Z,9.30
2023-04-18T05:51:56.697Z,7.90
2023-04-18T05:54:27.447Z,8.35
2023-04-18T05:56:57.515Z,12.17
2023-04-18T05:59:27.190Z,8.25
2023-04-18T06:01:56.334Z,10.68
2023-04-18T06:04:22.884Z,18.10
2023-04-18T06:06:49.428Z,8.60
2023-04-18T06:09:15.830Z,8.90
2023-04-18T06:11:42.546Z,10.93
2023-04-18T06:14:08.980Z,6.72
2023-04-18T06:16:37.338Z,9.88
2023-04-18T06:19:09.811Z,12.63
2023-04-18T06:21:37.949Z,11.57
2023-04-18T06:24:04.405Z,7.25
2023-04-18T06:26:35.307Z,8.52
2023-04-18T06:29:01.693Z,7.72
2023-04-18T06:31:28.113Z,10.13
2023-04-18T06:34:08.060Z,11.93
2023-04-18T06:36:34.478Z,8.63
2023-04-18T06:39:11.013Z,12.85
2023-04-18T06:41:37.460Z,7.28
2023-04-18T06:44:09.296Z,6.15
2023-04-18T06:46:35.718Z,7.03
2023-04-18T06:49:08.446Z,6.30
2023-04-18T06:51:34.799Z,7.45
2023-04-18T06:54:01.501Z,6.90
2023-04-18T06:56:34.452Z,6.13
2023-04-18T06:59:02.658Z,8.57
2023-04-18T07:01:36.313Z,5.65
2023-04-18T07:04:02.730Z,7.93
2023-04-18T07:06:31.928Z,8.52
2023-04-18T07:09:03.647Z,5.90
2023-04-18T07:11:30.059Z,5.90
2023-04-18T07:14:00.709Z,7.43
2023-04-18T07:16:30.228Z,11.95
2023-04-18T07:18:56.645Z,8.10
2023-04-18T07:21:26.651Z,5.85
2023-04-18T07:23:56.166Z,5.83
2023-04-18T07:26:30.313Z,8.57
2023-04-18T07:28:56.736Z,5.57
2023-04-18T07:31:28.359Z,5.82
2023-04-18T07:34:02.205Z,5.40
2023-04-18T07:36:35.349Z,6.67
2023-04-18T07:39:01.743Z,6.95
2023-04-18T07:41:28.122Z,8.10
2023-04-18T07:43:54.864Z,8.00
2023-04-18T07:46:21.289Z,4.63
2023-04-18T07:48:47.715Z,7.93
2023-04-18T07:51:14.113Z,9.50
2023-04-18T07:53:41.106Z,5.40
2023-04-18T07:56:10.462Z,6.15
2023-04-18T07:58:36.806Z,6.05
2023-04-18T08:01:09.246Z,5.30
2023-04-18T08:03:38.764Z,4.53
2023-04-18T08:06:10.471Z,4.90
2023-04-18T08:08:39.901Z,4.78
2023-04-18T08:11:06.371Z,4.50
2023-04-18T08:13:42.297Z,5.17
2023-04-18T08:16:08.834Z,8.27
2023-04-18T08:18:35.921Z,6.57
2023-04-18T08:21:04.804Z,4.10
2023-04-18T08:23:31.253Z,5.32
2023-04-18T08:26:04.178Z,5.10
2023-04-18T08:28:30.583Z,6.28
2023-04-18T08:30:57.006Z,5.75
2023-04-18T08:33:46.500Z,4.90
2023-04-18T08:36:15.871Z,6.35
2023-04-18T08:38:42.280Z,3.80
2023-04-18T08:41:12.661Z,4.05
2023-04-18T08:43:39.033Z,4.13
2023-04-18T08:46:05.622Z,7.65
2023-04-18T08:48:32.488Z,5.93
2023-04-18T08:51:06.791Z,4.43
2023-04-18T08:53:34.223Z,8.88
2023-04-18T08:56:01.562Z,5.05
2023-04-18T08:58:32.162Z,4.00
2023-04-18T09:01:08.027Z,4.60
2023-04-18T09:03:43.510Z,4.00
2023-04-18T09:06:19.371Z,3.90
2023-04-18T09:08:59.035Z,3.75
2023-04-18T09:11:29.857Z,5.05
2023-04-18T09:13:58.633Z,6.32
2023-04-18T09:16:30.430Z,4.13
2023-04-18T09:19:22.722Z,4.25
2023-04-18T09:22:04.728Z,4.63
2023-04-18T09:24:31.935Z,4.97
2023-04-18T09:27:16.677Z,4.47
2023-04-18T09:29:49.430Z,6.33
2023-04-18T09:32:27.571Z,4.40
2023-04-18T09:35:01.369Z,4.28
2023-04-18T09:37:32.159Z,5.95
2023-04-18T09:40:02.632Z,4.60
2023-04-18T09:42:36.112Z,4.00
2023-04-18T09:45:15.411Z,6.00
2023-04-18T09:47:41.939Z,5.22
2023-04-18T09:50:10.735Z,4.00
2023-04-18T09:52:42.181Z,3.60
2023-04-18T09:58:25.232Z,3.50
2023-04-18T10:01:05.582Z,3.53
2023-04-18T10:03:39.958Z,3.00
2023-04-18T10:06:07.781Z,3.55
2023-04-18T10:08:36.823Z,3.20
2023-04-18T10:11:09.674Z,3.40
2023-04-18T10:13:41.528Z,4.97
2023-04-18T10:16:11.976Z,3.83
2023-04-18T10:18:38.688Z,3.40
2023-04-18T10:21:08.295Z,3.57
2023-04-18T10:23:39.445Z,4.82
2023-04-18T10:26:22.424Z,3.90
2023-04-18T10:29:14.847Z,4.93
2023-04-18T10:31:41.361Z,4.50
2023-04-18T10:34:07.927Z,3.80
2023-04-18T10:36:34.430Z,6.82
2023-04-18T10:39:05.730Z,3.40
2023-04-18T10:41:33.725Z,4.45
2023-04-18T10:44:09.512Z,3.33
2023-04-18T10:46:52.796Z,2.97
2023-04-18T10:49:33.178Z,2.78
2023-04-18T10:52:00.994Z,4.88
2023-04-18T10:54:59.142Z,2.60
2023-04-18T11:00:28.104Z,3.20
2023-04-18T11:02:59.836Z,3.35
2023-04-18T11:08:25.084Z,3.13
2023-04-18T11:11:08.925Z,4.00
2023-04-18T11:14:04.284Z,3.10
2023-04-18T11:17:02.017Z,3.90
2023-04-18T11:19:28.366Z,3.60
2023-04-18T11:22:14.816Z,5.38
2023-04-18T11:24:59.797Z,4.38
2023-04-18T11:27:32.030Z,3.87
2023-04-18T11:29:58.432Z,4.50
2023-04-18T11:32:27.900Z,5.78
2023-04-18T11:34:57.784Z,5.82
2023-04-18T11:37:24.195Z,4.72
2023-04-18T11:39:54.105Z,5.00
2023-04-18T11:42:35.912Z,4.68
2023-04-18T11:45:23.144Z,4.85
2023-04-18T11:47:55.229Z,5.22
2023-04-18T11:50:21.681Z,5.10
2023-04-18T11:52:51.088Z,4.70
2023-04-18T11:55:38.529Z,10.52
2023-04-18T11:58:10.909Z,6.38
2023-04-18T12:00:42.180Z,5.50
2023-04-18T12:03:16.753Z,7.80
2023-04-18T12:05:44.330Z,4.93
2023-04-18T12:08:20.909Z,5.80
2023-04-18T12:10:52.525Z,5.97
2023-04-18T12:13:25.728Z,4.93
2023-04-18T12:16:14.849Z,5.75
2023-04-18T12:18:47.196Z,6.77
2023-04-18T12:21:19.862Z,9.57
2023-04-18T12:23:50.453Z,6.18
2023-04-18T12:26:28.095Z,6.28
2023-04-18T12:28:57.039Z,6.50
2023-04-18T12:31:29.328Z,8.20
2023-04-18T12:33:55.704Z,7.57
2023-04-18T12:36:27.349Z,6.72
2023-04-18T12:38:53.877Z,6.03
2023-04-18T12:41:20.745Z,7.50
2023-04-18T12:44:00.341Z,7.27
2023-04-18T12:46:28.293Z,6.97
2023-04-18T12:49:00.561Z,6.90
2023-04-18T12:51:32.485Z,6.90
2023-04-18T12:54:02.986Z,6.55
2023-04-18T12:56:29.443Z,6.63
2023-04-18T12:58:59.534Z,6.55
2023-04-18T13:01:29.169Z,7.03
2023-04-18T13:04:11.985Z,6.28
2023-04-18T13:06:45.207Z,6.82
2023-04-18T13:09:12.031Z,8.10
2023-04-18T13:11:38.539Z,7.93
2023-04-18T13:14:14.951Z,12.55
2023-04-18T13:16:43.498Z,8.23
2023-04-18T13:19:15.825Z,8.82
2023-04-18T13:21:42.387Z,8.07
2023-04-18T13:24:11.102Z,7.70
2023-04-18T13:26:39.969Z,8.30
2023-04-18T13:29:06.312Z,10.02
2023-04-18T13:31:39.579Z,8.23
2023-04-18T13:34:06.013Z,8.37
2023-04-18T13:36:37.344Z,7.82
2023-04-18T13:39:10.606Z,7.63
2023-04-18T13:44:26.046Z,8.25
2023-04-18T13:46:52.918Z,8.37
2023-04-18T13:49:19.384Z,8.02
2023-04-18T13:51:49.097Z,8.52
2023-04-18T13:54:19.900Z,8.88
2023-04-18T13:56:47.854Z,7.55
2023-04-18T13:59:15.041Z,8.13
2023-04-18T14:01:42.730Z,9.43
2023-04-18T14:04:09.220Z,9.68
2023-04-18T14:06:38.825Z,7.72
2023-04-18T14:09:06.780Z,8.55
2023-04-18T14:11:41.768Z,10.53
2023-04-18T14:14:08.156Z,7.28
2023-04-18T14:16:34.669Z,8.13
2023-04-18T14:19:07.016Z,7.68
2023-04-18T14:21:37.539Z,7.63
2023-04-18T14:24:14.133Z,7.73
2023-04-18T14:26:40.501Z,8.32
2023-04-18T14:29:17.499Z,7.82
2023-04-18T14:31:44.014Z,7.82
2023-04-18T14:36:55.861Z,9.57
2023-04-18T14:39:25.172Z,7.50
2023-04-18T14:41:51.858Z,7.35
2023-04-18T14:44:21.023Z,7.38
2023-04-18T14:46:47.508Z,9.10
2023-04-18T14:49:14.215Z,7.60
2023-04-18T14:51:44.486Z,7.03
2023-04-18T14:54:10.921Z,10.23
2023-04-18T14:56:37.339Z,7.38
2023-04-18T14:59:04.506Z,7.20
2023-04-18T15:01:31.177Z,7.77
2023-04-18T15:04:03.521Z,6.55
2023-04-18T15:06:33.310Z,7.00
2023-04-18T15:08:59.858Z,9.00
2023-04-18T15:11:27.481Z,6.90
2023-04-18T15:13:54.205Z,8.43
2023-04-18T15:16:24.314Z,8.57
2023-04-18T15:18:50.763Z,7.22
2023-04-18T15:21:19.438Z,6.63
2023-04-18T15:23:49.151Z,7.20
2023-04-18T15:26:17.873Z,8.80
2023-04-18T15:28:54.421Z,6.88
2023-04-18T15:31:24.379Z,6.70
2023-04-18T15:33:54.899Z,6.60
2023-04-18T15:36:21.300Z,6.53
2023-04-18T15:38:57.541Z,7.37
2023-04-18T15:41:24.021Z,6.88
2023-04-18T15:43:58.326Z,6.47
2023-04-18T15:46:24.737Z,7.40
2023-04-18T15:48:52.376Z,6.55
2023-04-18T15:51:18.844Z,5.77
2023-04-18T15:53:45.359Z,7.05
2023-04-18T15:56:12.008Z,8.13
2023-04-18T15:58:46.813Z,7.15
2023-04-18T16:01:16.096Z,6.13
2023-04-18T16:03:45.243Z,5.77
2023-04-18T16:06:15.666Z,5.97
2023-04-18T16:14:19.045Z,6.32
2023-04-18T16:16:53.161Z,5.50
2023-04-18T16:19:22.086Z,6.03
2023-04-18T16:21:50.037Z,6.50
2023-04-18T16:24:22.733Z,7.15
2023-04-18T16:26:49.245Z,7.60
2023-04-18T16:29:20.809Z,7.00
2023-04-18T16:31:47.617Z,6.07
2023-04-18T16:34:23.090Z,6.07
2023-04-18T16:36:51.139Z,6.53
2023-04-18T16:39:20.737Z,5.70
2023-04-18T16:41:47.588Z,5.87
2023-04-18T16:44:14.112Z,6.40
2023-04-18T16:46:40.777Z,5.53
2023-04-18T16:49:15.449Z,5.78
2023-04-18T16:51:41.856Z,5.22
2023-04-18T16:54:12.267Z,5.97
2023-04-18T16:56:44.508Z,6.07
2023-04-18T16:59:16.604Z,5.65
2023-04-18T17:01:45.855Z,6.22
2023-04-18T17:04:12.741Z,5.97
2023-04-18T17:06:47.181Z,7.03
2023-04-18T17:09:14.519Z,5.75
2023-04-18T17:11:44.385Z,7.32
2023-04-18T17:14:11.559Z,6.15
2023-04-18T17:16:46.826Z,5.53
2023-04-18T17:19:16.519Z,5.03
2023-04-18T17:21:44.354Z,5.18
2023-04-18T17:24:11.840Z,5.60
2023-04-18T17:26:38.829Z,5.88
2023-04-18T17:29:05.341Z,5.80
2023-04-18T17:31:41.533Z,5.80
2023-04-18T17:34:07.889Z,6.30
2023-04-18T17:36:39.465Z,6.28
2023-04-18T17:39:06.507Z,5.88
2023-04-18T17:41:39.104Z,5.90
2023-04-18T17:44:10.248Z,6.13
2023-04-18T17:46:39.013Z,6.38
2023-04-18T17:49:34.258Z,6.18
2023-04-18T17:52:08.344Z,5.65
2023-04-18T17:54:34.754Z,6.07
2023-04-18T17:57:02.662Z,6.80
2023-04-18T17:59:37.470Z,6.65
2023-04-18T18:02:05.085Z,5.68
2023-04-18T18:04:43.329Z,7.40
2023-04-18T18:07:10.233Z,6.55
2023-04-18T18:09:43.182Z,6.57
2023-04-18T18:12:12.575Z,7.05
2023-04-18T18:14:40.566Z,6.43
2023-04-18T18:17:07.088Z,6.90
2023-04-18T18:19:43.622Z,6.68
2023-04-18T18:22:10.238Z,6.93
2023-04-18T18:24:36.635Z,7.50
2023-04-18T18:27:08.653Z,7.13
2023-04-18T18:29:35.154Z,8.40
2023-04-18T18:32:01.501Z,6.30
2023-04-18T18:34:32.006Z,6.73
2023-04-18T18:36:58.538Z,7.78
2023-04-18T18:39:24.918Z,6.72
2023-04-18T18:41:54.511Z,7.72
2023-04-18T18:44:23.871Z,6.72
2023-04-18T18:46:50.584Z,7.87
2023-04-18T18:49:29.005Z,10.45
2023-04-18T18:51:58.549Z,7.65
2023-04-18T18:54:29.325Z,7.03
2023-04-18T18:56:55.892Z,6.50
2023-04-18T18:59:26.898Z,6.50
2023-04-18T19:01:53.456Z,5.82
2023-04-18T19:04:20.293Z,6.30
2023-04-18T19:06:51.144Z,6.75
2023-04-18T19:09:17.526Z,6.05
2023-04-18T19:11:44.050Z,5.87
2023-04-18T19:14:13.999Z,6.30
2023-04-18T19:16:43.481Z,5.72
2023-04-18T19:19:17.858Z,6.32
2023-04-18T19:21:46.050Z,5.28
2023-04-18T19:24:20.611Z,5.80
2023-04-18T19:26:47.093Z,5.60
2023-04-18T19:29:14.258Z,5.45
2023-04-18T19:31:43.822Z,4.78
2023-04-18T19:34:13.698Z,4.43
2023-04-18T19:36:41.223Z,4.73
2023-04-18T19:39:13.712Z,6.18
2023-04-18T19:41:41.568Z,4.65
2023-04-18T19:44:09.531Z,4.53
2023-04-18T19:46:39.153Z,5.43
2023-04-18T19:49:05.758Z,4.10
2023-04-18T19:51:34.908Z,5.10
2023-04-18T19:54:04.724Z,4.50
2023-04-18T19:56:33.907Z,5.47
2023-04-18T19:59:00.738Z,4.22
2023-04-18T20:01:27.286Z,5.17
2023-04-18T20:03:57.680Z,4.53
2023-04-18T20:06:29.197Z,4.45
2023-04-18T20:08:55.679Z,4.93
2023-04-18T20:11:26.920Z,4.55
2023-04-18T20:13:56.547Z,4.30
2023-04-18T20:16:30.156Z,4.78
2023-04-18T20:19:01.577Z,4.57
2023-04-18T20:21:37.321Z,4.28
2023-04-18T20:24:03.768Z,6.65
2023-04-18T20:29:14.903Z,5.55
2023-04-18T20:31:44.682Z,6.20
2023-04-18T20:34:11.206Z,4.15
2023-04-18T20:36:47.036Z,4.30
2023-04-18T20:39:13.872Z,4.03
2023-04-18T20:41:53.864Z,4.47
2023-04-18T20:44:26.197Z,5.40
2023-04-18T20:46:55.523Z,5.20
2023-04-18T20:52:10.846Z,4.90
2023-04-18T20:54:37.277Z,4.38
2023-04-18T20:57:03.765Z,5.65
2023-04-18T20:59:30.801Z,4.85
2023-04-18T21:01:57.307Z,4.32
2023-04-18T21:04:24.638Z,4.30
2023-04-18T21:06:51.156Z,3.97
2023-04-18T21:09:20.776Z,5.60
2023-04-18T21:11:47.174Z,6.25
2023-04-18T21:14:13.795Z,4.47
2023-04-18T21:16:41.359Z,4.73
2023-04-18T21:19:10.793Z,4.78
2023-04-18T21:21:37.234Z,3.92
2023-04-18T21:24:08.888Z,4.03
2023-04-18T21:26:38.511Z,4.25
2023-04-18T21:29:07.489Z,4.10
2023-04-18T21:31:37.529Z,4.38
2023-04-18T21:34:05.367Z,4.13
2023-04-18T21:36:34.950Z,4.30
2023-04-18T21:39:04.257Z,4.88
2023-04-18T21:41:33.257Z,5.27
2023-04-18T21:43:59.963Z,4.32
2023-04-18T21:46:29.534Z,8.27
2023-04-18T21:48:58.685Z,4.28
2023-04-18T21:51:25.185Z,3.75
2023-04-18T21:53:52.248Z,4.67
2023-04-18T21:56:18.686Z,3.70
2023-04-18T21:58:47.958Z,7.22
2023-04-18T22:01:17.506Z,6.82
2023-04-18T22:03:44.165Z,4.15
2023-04-18T22:06:13.825Z,4.27
2023-04-18T22:08:41.927Z,4.38
2023-04-18T22:11:14.107Z,5.50
2023-04-18T22:13:44.692Z,4.38
2023-04-18T22:16:19.011Z,4.18
2023-04-18T22:18:51.325Z,3.97
2023-04-18T22:21:20.337Z,4.40
2023-04-18T22:23:49.786Z,4.60
2023-04-18T22:26:16.220Z,5.03
2023-04-18T22:28:42.905Z,4.80
2023-04-18T22:31:16.467Z,4.03
2023-04-18T22:36:26.831Z,6.72
2023-04-18T22:38:53.279Z,5.57
2023-04-18T22:41:23.646Z,5.05
2023-04-18T22:43:55.428Z,6.40
2023-04-18T22:46:22.655Z,4.57
2023-04-18T22:48:49.491Z,4.18
2023-04-18T22:51:18.363Z,5.13
2023-04-18T22:53:47.477Z,4.53
2023-04-18T22:56:13.819Z,4.67
2023-04-18T22:58:44.075Z,4.22
2023-04-18T23:01:10.613Z,4.53
2023-04-18T23:03:37.228Z,4.05
2023-04-18T23:06:07.630Z,4.75
2023-04-18T23:08:36.776Z,4.63
2023-04-18T23:11:10.610Z,6.50
2023-04-18T23:13:37.010Z,3.95
2023-04-18T23:16:03.487Z,4.72
2023-04-18T23:18:34.068Z,5.07
2023-04-18T23:21:03.624Z,4.60
2023-04-18T23:23:30.038Z,4.22
2023-04-18T23:25:58.876Z,5.35
2023-04-18T23:28:28.153Z,4.22
2023-04-18T23:31:00.042Z,5.10
2023-04-18T23:33:29.539Z,4.20
2023-04-18T23:35:55.992Z,4.30
2023-04-18T23:38:25.198Z,5.85
2023-04-18T23:40:54.287Z,6.53
2023-04-18T23:43:20.867Z,4.47
2023-04-18T23:45:50.597Z,4.93
2023-04-18T23:48:16.910Z,6.10
2023-04-18T23:50:52.461Z,6.68
2023-04-18T23:53:22.686Z,4.97
2023-04-18T23:58:33.619Z,5.27
